Time;durP1;ratioP1;P1;durP2;ratioP2;P2;SDS_P1;SDS_P2;PMS_P1;PMS_P2;Temp;Humidity;BMP_temperature;BMP_pressure;BME280_temperature;BME280_humidity;BME280_pressure;Samples;Min_cycle;Max_cycle;Signal;HPM_P1;HPM_P2
2022/07/07 00:00:39;;;;;;;5.13;2.38;;;;;;;14.33;56.06;96636.81;2032661;29;20044;-64
2022/07/07 00:01:40;;;;;;;4.55;2.08;;;;;;;14.37;54.80;96636.66;2025171;29;20043;-63
2022/07/07 00:02:41;;;;;;;6.30;2.38;;;;;;;14.33;55.22;96641.19;2025125;29;20044;-63
2022/07/07 00:03:43;;;;;;;4.85;1.90;;;;;;;14.38;55.58;96630.50;2033374;29;20044;-62
2022/07/07 00:04:44;;;;;;;4.63;2.10;;;;;;;14.36;55.39;96632.34;2041820;28;20064;-63
2022/07/07 00:05:45;;;;;;;4.50;2.00;;;;;;;14.29;55.84;96627.44;2048440;29;20054;-63
2022/07/07 00:06:46;;;;;;;5.28;2.33;;;;;;;14.34;55.98;96627.19;2040764;29;20051;-63
2022/07/07 00:07:48;;;;;;;7.90;2.00;;;;;;;14.41;55.44;96635.56;2040593;29;20059;-63
2022/07/07 00:08:49;;;;;;;5.30;2.10;;;;;;;14.34;55.46;96629.81;2033419;29;20301;-62
2022/07/07 00:09:51;;;;;;;5.00;2.17;;;;;;;14.28;55.72;96628.38;2025347;29;20467;-63
2022/07/07 00:10:52;;;;;;;5.47;2.15;;;;;;;14.24;56.22;96629.44;2032826;29;20537;-63
2022/07/07 00:11:54;;;;;;;4.18;2.20;;;;;;;14.23;56.03;96625.16;2040567;29;20051;-64
2022/07/07 00:12:55;;;;;;;3.85;2.30;;;;;;;14.29;56.16;96627.44;2040410;29;20055;-63
2022/07/07 00:13:56;;;;;;;4.05;1.98;;;;;;;14.18;56.34;96627.16;2040331;29;20054;-63
2022/07/07 00:14:57;;;;;;;4.45;2.00;;;;;;;14.20;56.80;96629.69;2040683;29;20047;-64
2022/07/07 00:15:58;;;;;;;5.03;2.33;;;;;;;14.11;57.23;96631.00;2032574;29;20518;-63
2022/07/07 00:17:00;;;;;;;5.78;2.00;;;;;;;14.10;56.95;96624.09;2033241;29;20075;-64
2022/07/07 00:18:01;;;;;;;4.43;2.13;;;;;;;14.05;56.85;96626.94;2032290;29;20066;-62
2022/07/07 00:19:03;;;;;;;4.68;2.20;;;;;;;14.14;56.81;96628.25;2040710;29;20074;-63
2022/07/07 00:20:05;;;;;;;4.40;2.17;;;;;;;14.14;56.83;96625.63;2040326;29;20060;-63
2022/07/07 00:21:06;;;;;;;3.67;2.15;;;;;;;14.13;56.65;96626.53;2032997;29;20446;-63
2022/07/07 00:22:07;;;;;;;4.28;2.22;;;;;;;14.08;56.92;96626.75;2025299;29;20048;-61
2022/07/07 00:23:08;;;;;;;4.90;2.10;;;;;;;14.08;56.55;96631.16;2033058;29;20044;-63
2022/07/07 00:24:10;;;;;;;4.82;2.05;;;;;;;14.06;57.15;96633.84;2040704;29;20534;-62
2022/07/07 00:25:11;;;;;;;4.55;2.08;;;;;;;14.04;56.84;96624.41;2040640;29;20059;-63
2022/07/07 00:26:12;;;;;;;7.80;2.35;;;;;;;14.08;56.79;96626.75;2040732;29;20055;-63
2022/07/07 00:27:13;;;;;;;4.93;1.98;;;;;;;14.15;56.93;96626.47;2032664;29;20044;-63
2022/07/07 00:28:15;;;;;;;3.50;2.50;;;;;;;14.07;57.17;96625.09;2040462;29;20058;-63
2022/07/07 00:29:16;;;;;;;3.72;2.33;;;;;;;14.03;57.06;96631.41;2041489;29;20506;-63
2022/07/07 00:30:17;;;;;;;4.22;2.30;;;;;;;14.05;57.20;96631.31;2041480;28;20052;-63
2022/07/07 00:31:18;;;;;;;3.03;2.10;;;;;;;14.06;57.61;96628.63;2048430;29;20059;-64
2022/07/07 00:32:20;;;;;;;5.25;2.30;;;;;;;14.06;57.35;96640.81;2032240;29;20157;-64
2022/07/07 00:33:21;;;;;;;3.17;1.90;;;;;;;14.01;57.64;96632.41;2032736;29;20063;-63
2022/07/07 00:34:22;;;;;;;5.28;2.38;;;;;;;14.01;57.59;96635.00;2040619;29;20048;-65
2022/07/07 00:35:23;;;;;;;5.50;2.00;;;;;;;14.01;57.84;96635.00;2032668;29;20517;-63
2022/07/07 00:36:25;;;;;;;5.75;2.28;;;;;;;14.04;58.02;96632.25;2032727;29;20048;-64
2022/07/07 00:37:26;;;;;;;4.57;2.13;;;;;;;13.97;58.35;96641.31;2040536;29;20039;-64
2022/07/07 00:38:27;;;;;;;3.85;1.80;;;;;;;13.98;58.11;96636.00;2032297;29;20040;-64
2022/07/07 00:39:28;;;;;;;3.72;2.10;;;;;;;13.95;58.46;96637.91;2032735;29;20055;-64
2022/07/07 00:40:29;;;;;;;4.38;2.22;;;;;;;13.95;58.43;96643.13;2040069;29;20047;-63
2022/07/07 00:41:31;;;;;;;5.40;2.40;;;;;;;13.95;58.26;96641.38;2040520;29;20048;-64
2022/07/07 00:42:32;;;;;;;4.57;2.67;;;;;;;13.96;58.39;96645.69;2032779;29;20044;-64
2022/07/07 00:43:36;;;;;;;3.58;2.15;;;;;;;13.94;58.34;96642.28;2032811;29;20056;-64
2022/07/07 00:44:38;;;;;;;4.55;2.20;;;;;;;13.92;58.63;96638.06;2040589;29;20047;-62
2022/07/07 00:45:39;;;;;;;7.70;2.35;;;;;;;13.92;58.65;96640.69;2032573;29;20457;-63
2022/07/07 00:46:44;;;;;;;3.30;2.00;;;;;;;13.90;58.57;96646.00;2032600;29;20055;-62
2022/07/07 00:47:46;;;;;;;4.90;2.42;;;;;;;13.90;58.44;96640.78;2033566;29;20040;-63
2022/07/07 00:48:47;;;;;;;4.35;2.13;;;;;;;13.93;58.39;96637.16;2040219;29;20054;-63
2022/07/07 00:49:48;;;;;;;4.25;2.20;;;;;;;13.86;58.98;96634.00;2040599;29;20050;-63
2022/07/07 00:50:50;;;;;;;3.60;2.22;;;;;;;13.86;59.36;96644.44;2025134;29;20057;-63
2022/07/07 00:51:51;;;;;;;3.45;2.10;;;;;;;13.82;59.39;96625.50;2025218;29;20252;-63
2022/07/07 00:52:53;;;;;;;5.72;2.63;;;;;;;13.80;59.03;96631.72;2024922;29;20052;-63
2022/07/07 00:53:54;;;;;;;5.25;2.50;;;;;;;13.78;59.37;96631.78;2033936;29;20059;-63
2022/07/07 00:54:57;;;;;;;3.95;2.35;;;;;;;13.76;59.64;96636.22;2041889;29;20055;-63
2022/07/07 00:55:58;;;;;;;4.40;2.38;;;;;;;13.79;59.76;96625.66;2042201;29;20055;-63
2022/07/07 00:56:59;;;;;;;3.33;2.45;;;;;;;13.79;59.83;96627.41;2041998;29;20047;-63
2022/07/07 00:58:01;;;;;;;4.70;2.50;;;;;;;13.71;59.82;96633.00;2042258;29;20528;-63
2022/07/07 00:59:03;;;;;;;4.13;2.38;;;;;;;13.68;59.19;96625.31;2034546;29;20047;-63
2022/07/07 01:00:07;;;;;;;6.88;2.40;;;;;;;13.69;59.91;96629.63;2034659;29;20048;-63
2022/07/07 01:01:08;;;;;;;3.33;2.28;;;;;;;13.66;59.85;96620.19;2034406;29;20064;-63
2022/07/07 01:02:09;;;;;;;6.95;2.38;;;;;;;13.66;59.81;96619.34;2034815;29;20040;-63
2022/07/07 01:03:11;;;;;;;3.33;2.17;;;;;;;13.61;59.85;96623.94;2041904;29;20111;-63
2022/07/07 01:04:12;;;;;;;7.15;2.67;;;;;;;13.54;60.34;96617.34;2042057;29;20403;-63
2022/07/07 01:05:13;;;;;;;4.85;2.47;;;;;;;13.53;59.83;96621.72;2041108;29;20051;-63
2022/07/07 01:06:15;;;;;;;5.20;2.28;;;;;;;13.52;60.86;96620.00;2042316;29;20071;-64
2022/07/07 01:07:16;;;;;;;4.28;2.60;;;;;;;13.54;59.94;96617.34;2034184;29;20044;-63
2022/07/07 01:08:18;;;;;;;4.90;2.65;;;;;;;13.55;59.36;96619.00;2034838;29;20183;-63
2022/07/07 01:09:19;;;;;;;5.65;2.40;;;;;;;13.52;59.98;96617.41;2034037;29;20052;-62
2022/07/07 01:10:20;;;;;;;4.88;2.40;;;;;;;13.52;59.35;96620.00;2034330;29;20047;-64
2022/07/07 01:11:21;;;;;;;9.88;2.70;;;;;;;13.46;60.20;96618.53;2042001;29;20457;-62
2022/07/07 01:12:23;;;;;;;8.10;2.58;;;;;;;13.43;59.50;96608.25;2042208;29;20047;-63
2022/07/07 01:13:24;;;;;;;4.00;2.50;;;;;;;13.50;59.85;96613.16;2034291;29;20055;-63
2022/07/07 01:14:26;;;;;;;4.07;2.55;;;;;;;13.50;59.93;96619.25;2041655;29;20521;-63
2022/07/07 01:15:27;;;;;;;5.07;2.25;;;;;;;13.44;59.91;96619.53;2034107;29;20048;-63
2022/07/07 01:16:32;;;;;;;5.78;2.50;;;;;;;13.37;60.73;96615.56;2033539;29;20052;-63
2022/07/07 01:17:33;;;;;;;3.45;2.28;;;;;;;13.44;59.56;96609.09;2041947;29;20426;-63
2022/07/07 01:18:35;;;;;;;5.07;2.53;;;;;;;13.45;59.50;96616.88;2041783;29;20051;-63
2022/07/07 01:19:36;;;;;;;4.38;2.78;;;;;;;13.47;59.48;96614.16;2042214;29;20402;-62
2022/07/07 01:20:37;;;;;;;10.23;2.40;;;;;;;13.41;59.64;96611.88;2042199;29;20055;-61
2022/07/07 01:21:46;;;;;;;8.70;2.65;;;;;;;13.39;60.01;96611.09;2042335;29;20047;-62
2022/07/07 01:22:50;;;;;;;5.50;2.30;;;;;;;13.36;60.35;96613.84;2042144;29;20048;-62
2022/07/07 01:23:51;;;;;;;6.80;2.50;;;;;;;13.33;60.02;96614.84;2041768;29;20051;-63
2022/07/07 01:24:52;;;;;;;4.85;2.53;;;;;;;13.34;60.45;96616.56;2034162;29;20059;-63
2022/07/07 01:25:54;;;;;;;5.45;2.42;;;;;;;13.43;59.02;96618.69;2034082;29;20060;-63
2022/07/07 01:27:16;;;;;;;3.58;2.20;;;;;;;13.48;59.56;96615.03;2034194;29;20059;-64
2022/07/07 01:28:17;;;;;;;5.18;2.50;;;;;;;13.44;59.82;96609.09;2036198;29;20047;-62
2022/07/07 01:29:19;;;;;;;3.92;2.13;;;;;;;13.42;59.21;96610.97;2042348;29;20337;-63
2022/07/07 01:30:20;;;;;;;5.30;2.53;;;;;;;13.37;59.95;96608.56;2026270;29;20053;-63
2022/07/07 01:31:21;;;;;;;5.55;2.40;;;;;;;13.34;60.19;96615.69;2018784;29;20603;-64
2022/07/07 01:32:23;;;;;;;7.78;2.55;;;;;;;13.36;61.06;96611.25;2034125;29;20067;-63
2022/07/07 01:33:24;;;;;;;4.22;2.25;;;;;;;13.33;60.52;96611.41;2034260;29;20051;-62
2022/07/07 01:34:25;;;;;;;8.68;2.60;;;;;;;13.31;60.97;96608.00;2033909;29;20062;-63
2022/07/07 01:35:27;;;;;;;5.13;2.38;;;;;;;13.29;60.26;96615.94;2034334;29;20048;-63
2022/07/07 01:36:28;;;;;;;4.45;2.40;;;;;;;13.32;60.13;96618.38;2025677;29;20051;-63
2022/07/07 01:37:29;;;;;;;5.30;2.40;;;;;;;13.34;59.76;96613.06;2033972;29;20051;-63
2022/07/07 01:38:30;;;;;;;5.55;2.22;;;;;;;13.32;60.56;96607.94;2049785;28;20051;-63
2022/07/07 01:39:31;;;;;;;4.82;2.22;;;;;;;13.29;60.53;96609.88;2041767;29;20059;-64
2022/07/07 01:40:33;;;;;;;3.90;2.20;;;;;;;13.35;59.32;96610.41;2026305;29;20055;-62
2022/07/07 01:41:34;;;;;;;5.68;2.67;;;;;;;13.32;60.00;96609.72;2033855;29;20051;-63
2022/07/07 01:42:35;;;;;;;5.50;2.50;;;;;;;13.27;59.85;96607.31;2034246;29;20052;-63
2022/07/07 01:43:36;;;;;;;5.80;2.45;;;;;;;13.24;60.75;96610.06;2034015;29;20047;-63
2022/07/07 01:44:38;;;;;;;5.72;2.78;;;;;;;13.22;60.41;96607.50;2033553;29;20048;-64
2022/07/07 01:45:39;;;;;;;6.53;2.42;;;;;;;13.23;60.76;96611.81;2041884;29;20537;-64
2022/07/07 01:46:41;;;;;;;4.53;2.58;;;;;;;13.22;60.50;96609.28;2033853;29;20052;-63
2022/07/07 01:47:42;;;;;;;5.05;2.63;;;;;;;13.19;60.68;96606.81;2034011;29;20052;-63
2022/07/07 01:48:43;;;;;;;5.75;2.25;;;;;;;13.23;60.68;96606.59;2041465;29;20043;-63
2022/07/07 01:49:47;;;;;;;3.97;2.10;;;;;;;13.15;61.23;96603.53;2049672;29;20054;-62
2022/07/07 01:50:49;;;;;;;3.78;2.25;;;;;;;13.16;60.97;96602.59;2041616;29;20059;-63
2022/07/07 01:51:50;;;;;;;6.32;2.53;;;;;;;13.17;60.64;96600.81;2041586;29;20067;-63
2022/07/07 01:52:51;;;;;;;6.03;2.55;;;;;;;13.13;61.01;96594.91;2042005;29;20052;-63
2022/07/07 01:53:52;;;;;;;5.35;2.20;;;;;;;13.16;61.11;96604.34;2033659;29;20542;-63
2022/07/07 01:54:54;;;;;;;9.50;2.75;;;;;;;13.11;61.35;96598.50;2034514;29;20048;-63
2022/07/07 01:55:55;;;;;;;4.68;2.50;;;;;;;13.10;61.09;96604.66;2041497;29;20047;-63
2022/07/07 01:56:57;;;;;;;5.65;2.53;;;;;;;13.11;60.86;96596.75;2041591;29;20050;-63
2022/07/07 01:57:58;;;;;;;6.38;2.60;;;;;;;13.13;60.63;96596.69;2033757;29;20103;-63
2022/07/07 01:58:59;;;;;;;4.70;2.40;;;;;;;13.15;60.85;96602.66;2033884;29;20051;-63
2022/07/07 02:00:01;;;;;;;4.85;2.22;;;;;;;13.06;61.10;96593.50;2041815;29;20533;-64
2022/07/07 02:01:02;;;;;;;4.65;2.60;;;;;;;13.02;61.05;96595.44;2042008;29;20545;-63
2022/07/07 02:02:04;;;;;;;5.63;2.60;;;;;;;13.03;61.57;96596.25;2033451;29;20048;-62
2022/07/07 02:03:05;;;;;;;4.18;2.25;;;;;;;13.02;61.07;96592.81;2034156;29;20426;-63
2022/07/07 02:04:06;;;;;;;4.22;2.20;;;;;;;12.96;61.42;96598.34;2041450;29;20063;-63
2022/07/07 02:05:08;;;;;;;4.63;2.45;;;;;;;12.91;62.34;96595.09;2041078;29;20099;-63
2022/07/07 02:06:09;;;;;;;7.05;2.42;;;;;;;12.92;62.06;96595.94;2033480;29;20060;-63
2022/07/07 02:07:10;;;;;;;5.53;2.80;;;;;;;12.91;61.56;96597.69;2034025;29;20043;-63
2022/07/07 02:08:11;;;;;;;5.78;2.60;;;;;;;12.94;61.49;96594.94;2033779;29;20522;-63
2022/07/07 02:09:13;;;;;;;5.53;3.05;;;;;;;12.94;61.94;96594.09;2033337;29;20608;-65
2022/07/07 02:11:12;;;;;;;5.22;2.50;;;;;;;12.89;62.32;96591.72;2026260;29;20427;-63
2022/07/07 02:12:36;;;;;;;5.55;2.75;;;;;;;12.80;62.36;96597.34;2044198;29;20440;-63
2022/07/07 02:13:38;;;;;;;6.40;2.13;;;;;;;12.75;62.65;96589.75;2041397;29;20047;-63
2022/07/07 02:14:40;;;;;;;8.32;2.53;;;;;;;12.72;63.05;96589.03;2043062;29;20058;-63
2022/07/07 02:15:41;;;;;;;5.85;2.80;;;;;;;12.70;62.90;96588.28;2056832;28;20433;-63
2022/07/07 02:16:42;;;;;;;5.07;2.60;;;;;;;12.68;63.69;96595.31;2048928;28;20524;-63
2022/07/07 02:17:43;;;;;;;7.57;2.47;;;;;;;12.68;62.88;96584.88;2041659;29;20054;-63
2022/07/07 02:18:46;;;;;;;6.47;2.63;;;;;;;12.65;63.06;96583.28;2041073;29;20051;-62
2022/07/07 02:19:47;;;;;;;6.22;2.92;;;;;;;12.60;64.02;96595.66;2049848;28;20047;-62
2022/07/07 02:20:48;;;;;;;7.47;2.78;;;;;;;12.61;63.92;96588.69;2042364;29;20055;-63
2022/07/07 02:21:50;;;;;;;5.68;2.55;;;;;;;12.61;63.64;96586.06;2018524;29;20049;-63
2022/07/07 02:22:51;;;;;;;4.47;2.38;;;;;;;12.60;63.03;96587.84;2033605;29;20544;-63
2022/07/07 02:23:53;;;;;;;6.05;2.70;;;;;;;12.64;63.53;96593.75;2041255;29;20048;-63
2022/07/07 02:24:54;;;;;;;6.10;2.50;;;;;;;12.61;63.71;96586.91;2049404;29;20417;-63
2022/07/07 02:25:55;;;;;;;3.65;2.30;;;;;;;12.58;63.24;96587.91;2041491;29;20048;-63
2022/07/07 02:26:57;;;;;;;5.32;2.38;;;;;;;12.58;64.10;96587.91;2033728;29;20056;-62
2022/07/07 02:27:58;;;;;;;5.05;2.63;;;;;;;12.58;63.80;96592.28;2034145;29;20052;-64
2022/07/07 02:29:00;;;;;;;6.63;2.45;;;;;;;12.56;63.84;96594.97;2026150;29;20423;-63
2022/07/07 02:30:02;;;;;;;4.90;2.67;;;;;;;12.60;63.69;96584.41;2040700;29;20056;-64
2022/07/07 02:31:03;;;;;;;5.53;2.78;;;;;;;12.65;63.34;96585.03;2041311;29;20122;-64
2022/07/07 02:32:04;;;;;;;6.60;2.30;;;;;;;12.62;63.74;96586.03;2041611;29;20044;-63
2022/07/07 02:33:06;;;;;;;3.88;2.22;;;;;;;12.60;63.61;96584.41;2032908;29;20063;-63
2022/07/07 02:34:08;;;;;;;4.80;2.63;;;;;;;12.61;63.87;96586.06;2033954;29;20627;-63
2022/07/07 02:35:09;;;;;;;5.93;2.75;;;;;;;12.60;63.58;96581.78;2040978;29;20098;-62
2022/07/07 02:36:10;;;;;;;6.45;2.50;;;;;;;12.58;63.40;96585.28;2041366;29;20052;-63
2022/07/07 02:37:11;;;;;;;4.80;2.70;;;;;;;12.62;63.63;96586.03;2049217;28;20054;-63
2022/07/07 02:38:13;;;;;;;7.65;2.85;;;;;;;12.64;63.54;96580.72;2048928;29;20478;-63
2022/07/07 02:39:14;;;;;;;5.30;2.55;;;;;;;12.67;63.79;96586.66;2041042;29;20497;-63
2022/07/07 02:40:15;;;;;;;3.97;2.28;;;;;;;12.67;63.73;96585.78;2033953;29;20054;-63
2022/07/07 02:41:16;;;;;;;4.68;2.50;;;;;;;12.67;63.41;96585.78;2041397;29;20048;-64
2022/07/07 02:42:17;;;;;;;4.57;2.42;;;;;;;12.67;63.91;96585.78;2049259;29;20062;-62
2022/07/07 02:43:19;;;;;;;6.57;2.60;;;;;;;12.66;64.08;96584.09;2041133;29;20047;-62
2022/07/07 02:44:20;;;;;;;4.97;2.80;;;;;;;12.63;64.10;96582.50;2048987;29;20051;-63
2022/07/07 02:45:21;;;;;;;6.55;2.30;;;;;;;12.64;63.85;96585.94;2040788;29;20058;-62
2022/07/07 02:46:22;;;;;;;4.00;2.50;;;;;;;12.65;63.12;96582.44;2049136;29;20485;-62
2022/07/07 02:47:23;;;;;;;4.05;2.53;;;;;;;12.67;63.61;96585.78;2041586;29;20052;-62
2022/07/07 02:48:25;;;;;;;6.03;3.08;;;;;;;12.65;64.52;96580.66;2033347;29;20047;-64
2022/07/07 02:49:26;;;;;;;4.28;2.42;;;;;;;12.66;63.90;96582.34;2033571;29;20056;-63
2022/07/07 02:50:28;;;;;;;3.58;2.10;;;;;;;12.65;63.90;96585.03;2040787;29;20048;-63
2022/07/07 02:51:29;;;;;;;3.67;2.33;;;;;;;12.65;64.97;96583.28;2041105;29;20055;-63
2022/07/07 02:52:30;;;;;;;7.47;2.63;;;;;;;12.67;64.21;96580.56;2049244;29;20387;-62
2022/07/07 02:53:34;;;;;;;4.88;2.75;;;;;;;12.65;64.39;96578.06;2041095;29;20047;-63
2022/07/07 02:54:35;;;;;;;3.75;2.30;;;;;;;12.65;64.47;96582.44;2049664;28;20047;-64
2022/07/07 02:55:36;;;;;;;6.07;2.50;;;;;;;12.68;64.35;96587.50;2041288;29;20047;-63
2022/07/07 02:56:38;;;;;;;6.38;2.60;;;;;;;12.68;64.33;96579.69;2041672;28;20047;-61
2022/07/07 02:57:39;;;;;;;3.90;2.30;;;;;;;12.67;63.95;96580.56;2040960;29;20055;-63
2022/07/07 02:58:40;;;;;;;5.88;2.65;;;;;;;12.68;63.47;96587.50;2041156;29;20058;-63
2022/07/07 02:59:41;;;;;;;4.63;2.47;;;;;;;12.69;63.34;96581.34;2056962;28;20046;-62
2022/07/07 03:00:42;;;;;;;7.80;2.95;;;;;;;12.70;64.15;96575.25;2048978;29;20043;-63
2022/07/07 03:01:43;;;;;;;4.70;2.25;;;;;;;12.70;63.60;96575.25;2041093;29;20047;-63
2022/07/07 03:02:45;;;;;;;4.93;2.83;;;;;;;12.70;63.83;96577.84;2049075;28;20444;-62
2022/07/07 03:03:46;;;;;;;5.43;3.00;;;;;;;12.71;62.94;96566.50;2048904;29;20528;-62
2022/07/07 03:04:48;;;;;;;5.10;2.53;;;;;;;12.71;63.88;96576.94;2033388;29;20048;-64
2022/07/07 03:05:49;;;;;;;6.07;2.83;;;;;;;12.71;63.82;96577.75;2033276;29;20039;-63
2022/07/07 03:06:50;;;;;;;5.78;2.55;;;;;;;12.70;63.80;96580.47;2048803;28;20055;-63
2022/07/07 03:07:52;;;;;;;4.38;2.33;;;;;;;12.73;62.73;96572.50;2041003;29;20055;-63
2022/07/07 03:08:53;;;;;;;4.70;2.30;;;;;;;12.72;63.36;96574.25;2040942;29;20059;-63
2022/07/07 03:09:54;;;;;;;5.00;2.60;;;;;;;12.70;63.64;96572.63;2041055;29;20055;-62
2022/07/07 03:10:55;;;;;;;4.50;2.60;;;;;;;12.72;63.10;96566.44;2041372;29;20050;-62
2022/07/07 03:11:56;;;;;;;6.22;2.25;;;;;;;12.76;62.93;96564.53;2049005;29;20095;-63
2022/07/07 03:12:58;;;;;;;9.65;2.30;;;;;;;12.79;62.37;96561.78;2040726;29;20055;-64
2022/07/07 03:13:59;;;;;;;5.03;2.50;;;;;;;12.78;62.71;96560.09;2041252;29;20052;-62
2022/07/07 03:15:00;;;;;;;6.55;2.30;;;;;;;12.78;62.88;96568.75;2049148;28;20521;-63
2022/07/07 03:16:01;;;;;;;5.97;2.35;;;;;;;12.82;62.02;96568.59;2041196;29;20537;-63
2022/07/07 03:17:03;;;;;;;4.72;2.22;;;;;;;12.80;62.64;96563.44;2040463;29;20055;-63
2022/07/07 03:18:04;;;;;;;4.85;2.40;;;;;;;12.77;62.45;96563.59;2048721;29;20050;-63
2022/07/07 03:19:05;;;;;;;6.22;2.80;;;;;;;12.77;63.10;96564.44;2032672;29;20044;-63
2022/07/07 03:20:08;;;;;;;3.50;2.40;;;;;;;12.77;62.52;96559.22;2040617;29;20059;-62
2022/07/07 03:21:09;;;;;;;4.00;2.25;;;;;;;12.77;62.93;96561.00;2056354;28;20047;-63
2022/07/07 03:22:10;;;;;;;3.38;2.10;;;;;;;12.73;62.84;96560.31;2049252;28;20429;-62
2022/07/07 03:23:11;;;;;;;5.78;2.50;;;;;;;12.74;62.20;96556.78;2032745;29;20059;-62
2022/07/07 03:24:12;;;;;;;7.93;2.80;;;;;;;12.73;62.82;96564.69;2033390;29;20413;-62
2022/07/07 03:25:14;;;;;;;7.45;2.55;;;;;;;12.75;63.48;96560.22;2041307;29;20476;-62
2022/07/07 03:26:15;;;;;;;3.53;2.20;;;;;;;12.73;62.88;96564.69;2049454;28;20462;-63
2022/07/07 03:27:16;;;;;;;7.55;2.75;;;;;;;12.72;63.11;96553.41;2049183;28;20380;-63
2022/07/07 03:28:17;;;;;;;5.10;2.28;;;;;;;12.74;62.55;96559.38;2040847;29;20051;-63
2022/07/07 03:29:19;;;;;;;5.05;2.30;;;;;;;12.73;63.34;96562.06;2041181;29;20529;-64
2022/07/07 03:30:20;;;;;;;3.40;2.22;;;;;;;12.76;62.48;96564.53;2056465;28;20047;-63
2022/07/07 03:31:21;;;;;;;5.15;2.63;;;;;;;12.75;63.33;96562.81;2048311;29;20441;-63
2022/07/07 03:32:22;;;;;;;5.53;2.88;;;;;;;12.76;64.24;96567.97;2040876;29;20095;-62
2022/07/07 03:33:24;;;;;;;4.93;2.35;;;;;;;12.76;63.81;96564.53;2040530;29;20058;-62
2022/07/07 03:34:25;;;;;;;4.78;2.58;;;;;;;12.78;62.23;96568.75;2048554;28;20055;-63
2022/07/07 03:35:26;;;;;;;3.55;2.38;;;;;;;12.78;63.38;96570.53;2048488;29;20389;-63
2022/07/07 03:36:27;;;;;;;5.53;2.50;;;;;;;12.78;62.88;96568.75;2040954;29;20050;-63
2022/07/07 03:37:29;;;;;;;5.28;2.45;;;;;;;12.84;62.67;96562.41;2048515;28;20050;-64
2022/07/07 03:38:30;;;;;;;4.13;2.10;;;;;;;12.84;62.37;96566.78;2048585;29;20062;-63
2022/07/07 03:39:31;;;;;;;5.10;2.67;;;;;;;12.83;62.25;96563.34;2040403;29;20044;-63
2022/07/07 03:40:34;;;;;;;5.47;2.20;;;;;;;12.83;62.17;96568.53;2033305;29;20070;-63
2022/07/07 03:41:35;;;;;;;4.97;2.08;;;;;;;12.84;62.65;96570.22;2033764;29;20099;-63
2022/07/07 03:42:36;;;;;;;5.45;2.30;;;;;;;12.85;63.34;96565.84;2048665;29;20043;-61
2022/07/07 03:43:38;;;;;;;5.47;2.13;;;;;;;12.87;62.86;96567.47;2048614;29;20051;-61
2022/07/07 03:44:39;;;;;;;4.85;2.40;;;;;;;12.87;62.84;96570.06;2040808;29;20044;-61
2022/07/07 03:45:40;;;;;;;5.75;2.20;;;;;;;12.94;62.40;96571.47;2040972;29;20465;-63
2022/07/07 03:46:42;;;;;;;2.95;2.30;;;;;;;12.89;62.66;96570.84;2040678;29;20067;-63
2022/07/07 03:47:43;;;;;;;7.88;2.58;;;;;;;12.88;62.60;96563.09;2048339;29;20047;-64
2022/07/07 03:48:44;;;;;;;4.78;2.35;;;;;;;12.87;63.44;96564.84;2048834;28;20051;-62
2022/07/07 03:49:45;;;;;;;4.15;2.45;;;;;;;12.87;63.27;96564.84;2048486;29;20055;-63
2022/07/07 03:50:47;;;;;;;5.78;2.45;;;;;;;12.87;63.82;96564.03;2048709;29;20051;-63
2022/07/07 03:51:48;;;;;;;8.35;2.28;;;;;;;12.84;63.01;96567.63;2032597;29;20048;-62
2022/07/07 03:52:49;;;;;;;7.15;2.28;;;;;;;12.85;61.94;96564.09;2032955;29;20044;-64
2022/07/07 03:53:50;;;;;;;5.47;2.33;;;;;;;12.85;62.42;96566.69;2041045;29;20062;-63
2022/07/07 03:54:52;;;;;;;4.93;2.20;;;;;;;12.87;62.57;96569.25;2041077;29;20066;-63
2022/07/07 03:55:53;;;;;;;5.00;2.50;;;;;;;12.86;61.98;96570.16;2048438;28;20051;-62
2022/07/07 03:56:54;;;;;;;3.90;2.15;;;;;;;12.88;62.19;96568.31;2056624;28;20069;-62
2022/07/07 03:57:55;;;;;;;3.05;2.13;;;;;;;12.86;61.86;96560.56;2048585;29;20433;-62
2022/07/07 03:58:57;;;;;;;4.78;2.10;;;;;;;12.87;62.43;96562.25;2040808;29;20067;-63
2022/07/07 03:59:58;;;;;;;4.65;2.10;;;;;;;12.85;62.54;96566.69;2048164;29;20054;-63
2022/07/07 04:01:00;;;;;;;6.57;2.20;;;;;;;12.85;62.47;96560.63;2048455;29;20055;-63
2022/07/07 04:02:01;;;;;;;6.80;2.55;;;;;;;12.82;63.14;96563.38;2040833;29;20047;-62
2022/07/07 04:03:02;;;;;;;4.55;2.00;;;;;;;12.80;62.33;96559.09;2040834;29;20053;-63
2022/07/07 04:04:05;;;;;;;10.32;2.20;;;;;;;12.81;62.62;96559.94;2040467;29;20437;-63
2022/07/07 04:05:06;;;;;;;6.55;2.60;;;;;;;12.80;62.27;96566.94;2040521;29;20062;-63
2022/07/07 04:06:08;;;;;;;5.22;2.33;;;;;;;12.80;62.10;96569.53;2033105;29;20048;-62
2022/07/07 04:07:09;;;;;;;4.00;2.30;;;;;;;12.80;63.01;96568.66;2040618;28;20056;-62
2022/07/07 04:08:10;;;;;;;6.15;2.13;;;;;;;12.83;62.85;96565.06;2040683;29;20058;-63
2022/07/07 04:09:11;;;;;;;4.05;2.08;;;;;;;12.84;62.42;96570.22;2033093;29;20059;-62
2022/07/07 04:10:12;;;;;;;4.93;2.10;;;;;;;12.84;62.04;96572.84;2040633;29;20426;-63
2022/07/07 04:11:14;;;;;;;8.32;2.22;;;;;;;12.86;61.89;96568.41;2048305;29;20062;-63
2022/07/07 04:12:15;;;;;;;5.68;2.25;;;;;;;12.87;62.07;96567.47;2048474;29;20051;-63
2022/07/07 04:13:16;;;;;;;6.00;2.42;;;;;;;12.89;61.56;96570.84;2041211;28;20063;-63
2022/07/07 04:14:17;;;;;;;6.85;2.47;;;;;;;12.90;61.88;96569.09;2048559;29;20062;-63
2022/07/07 04:15:19;;;;;;;8.55;2.92;;;;;;;12.89;61.67;96564.81;2048927;28;20516;-63
2022/07/07 04:16:21;;;;;;;8.05;2.42;;;;;;;12.90;62.06;96569.94;2033300;29;20043;-63
2022/07/07 04:17:22;;;;;;;3.95;2.40;;;;;;;12.91;61.88;96566.41;2040576;29;20039;-63
2022/07/07 04:18:23;;;;;;;4.68;2.13;;;;;;;12.90;62.18;96566.47;2040061;29;20054;-63
2022/07/07 04:19:24;;;;;;;6.13;2.22;;;;;;;12.88;62.20;96563.94;2033113;29;20079;-62
2022/07/07 04:20:26;;;;;;;5.45;2.30;;;;;;;12.93;61.76;96566.34;2048292;28;20050;-63
2022/07/07 04:21:27;;;;;;;3.55;2.10;;;;;;;12.90;61.30;96564.72;2048033;29;20050;-63
2022/07/07 04:22:28;;;;;;;3.35;2.10;;;;;;;12.91;61.81;96561.22;2048289;29;20544;-63
2022/07/07 04:23:29;;;;;;;4.65;2.20;;;;;;;12.96;61.02;96561.84;2048417;29;20039;-62
2022/07/07 04:24:31;;;;;;;4.47;1.85;;;;;;;12.94;61.38;96561.06;2049200;28;20155;-64
2022/07/07 04:25:32;;;;;;;4.28;1.92;;;;;;;12.96;61.82;96554.00;2049013;28;20054;-62
2022/07/07 04:26:34;;;;;;;2.95;1.90;;;;;;;12.98;61.66;96553.94;2047950;29;20043;-63
2022/07/07 04:27:35;;;;;;;5.32;2.28;;;;;;;12.99;61.64;96555.59;2048156;28;20058;-62
2022/07/07 04:28:37;;;;;;;3.17;2.10;;;;;;;13.00;61.29;96546.88;2047585;28;20501;-62
2022/07/07 04:29:38;;;;;;;6.53;2.50;;;;;;;13.05;61.05;96546.66;2048056;29;20035;-61
2022/07/07 04:30:39;;;;;;;5.35;2.10;;;;;;;13.02;60.96;96547.66;2048261;29;20438;-63
2022/07/07 04:31:44;;;;;;;3.47;2.13;;;;;;;13.08;61.17;96546.50;2040556;29;20429;-63
2022/07/07 04:32:45;;;;;;;4.40;2.05;;;;;;;13.11;61.23;96548.97;2041188;28;20055;-63
2022/07/07 04:33:47;;;;;;;3.95;2.17;;;;;;;13.11;61.16;96541.16;2047995;29;20051;-63
2022/07/07 04:34:48;;;;;;;5.28;2.22;;;;;;;13.16;60.92;96542.59;2048534;29;20050;-63
2022/07/07 04:35:49;;;;;;;3.70;2.05;;;;;;;13.10;60.79;96544.69;2055729;28;20303;-62
2022/07/07 04:36:51;;;;;;;7.15;2.20;;;;;;;13.09;61.47;96551.63;2056339;28;20053;-63
2022/07/07 04:37:52;;;;;;;10.05;2.20;;;;;;;13.09;61.33;96549.03;2048307;29;20539;-63
2022/07/07 04:38:53;;;;;;;7.28;2.10;;;;;;;13.12;61.11;96550.66;2040528;29;20062;-63
2022/07/07 04:39:55;;;;;;;9.40;2.05;;;;;;;13.13;61.08;96544.53;2040155;29;20067;-63
2022/07/07 04:40:56;;;;;;;5.28;2.40;;;;;;;13.18;60.77;96545.16;2040637;29;20056;-63
2022/07/07 04:41:57;;;;;;;7.05;2.30;;;;;;;13.16;60.92;96545.22;2040448;29;20047;-63
2022/07/07 04:42:58;;;;;;;5.47;2.25;;;;;;;13.19;60.58;96549.44;2040389;29;20047;-62
2022/07/07 04:44:00;;;;;;;4.38;2.20;;;;;;;13.27;60.09;96544.72;2032494;29;20055;-63
2022/07/07 04:45:01;;;;;;;5.45;2.00;;;;;;;13.14;61.13;96536.63;2033050;29;20056;-63
2022/07/07 04:46:03;;;;;;;6.93;1.90;;;;;;;13.26;60.18;96543.03;2048383;29;20058;-63
2022/07/07 04:47:04;;;;;;;4.93;2.25;;;;;;;13.30;60.40;96548.94;2056226;28;20039;-63
2022/07/07 04:48:05;;;;;;;8.43;2.45;;;;;;;13.27;60.12;96544.72;2040135;29;20059;-63
2022/07/07 04:49:07;;;;;;;4.57;2.00;;;;;;;13.26;59.92;96548.25;2040549;29;20052;-63
2022/07/07 04:50:09;;;;;;;5.40;2.22;;;;;;;13.24;59.77;96552.66;2040146;29;20043;-63
2022/07/07 04:51:10;;;;;;;3.90;2.20;;;;;;;13.32;60.46;96550.56;2047991;28;20436;-63